Terminal Aerodrome Forecast
Issued by NWS Jackson, MS

Home | Current Version | Previous Version | Text Only | Print | Product List | Glossary On
Versions: 1 2 3 4 5 6 7 8 9 10 11 12 13 14 15 16 17 18
000
FTUS44 KJAN 282300
TAFGWO
TAF
KGWO 282322Z 0100/0124 VRB05KT P6SM OVC100
     FM010500 12005KT P6SM OVC050
     FM010600 12004KT P6SM OVC015
     FM011000 11003KT P6SM OVC007
     FM011200 08005KT 4SM BR OVC007
     FM011800 VRB04KT 2SM -RA BR OVC007=

USA.gov is the U.S. government's official web portal to all federal, state and local government web resources and services.